METAR EVRA 160850Z 16007KT 9999 SCT050CB 13/12 Q1006 NOSIG =

Riga "Friday Fun" Event

EVRA (Riga International Airport), Fridays from 1700 - 2100 UTC.

Come one, come all! Join us every Friday evening for our weekly "Friday Fun" event at EVRA. Expect a fully staffed ATC experience and enjoy the beautiful Latvian scenery.

Fly to/from/through Riga FIR and join us for a long haul flight, a short international hop or a casual, relaxing VFR flight around the many nearby destinations.

Pack your snow shoes and plenty of fuel for an exciting approach in some awful weather and visibility at traditional party at Riga, pearl of the Baltic.

Controllers Online

PositionControllerOnline
EVRA_APPArtem Mordvinov00:25

Booked ATC Today

* Times are UTC

The time is now

UTC: 

Local: 

Latvia vACC on twitter